Euskara    
Meteorología y climatología de Navarra
Datos de la estación - Meteo Navarra

Estación de Yesa GN

Altitud 487 m.


Datos desde el 23/02/2021 hasta el 24/02/2021 en horario solar
Los datos son PROVISIONALES

Anterior Página 1 de 1 Siguiente Descargar: Formato para Excel 2000 o superior   Formato csv   Formato para OpenOffice Calc
Fecha Temperatura Humedad relativa Radiación global Insolación Precipitación Vel. viento 10 m Vel. viento 10 m Dir. viento 10 m
°C % W/m² s l/m² m/s km/h °
23/02/2021 0:00 7.1 95 0.0 0 0.0 1.2 4.5 92
23/02/2021 0:10 7.0 95 0.0 0 0.0 1.6 5.6 97
23/02/2021 0:20 7.0 95 0.0 0 0.0 2.8 10.0 98
23/02/2021 0:30 7.1 94 0.0 0 0.0 2.6 9.3 91
23/02/2021 0:40 7.2 94 0.0 0 0.0 3.9 14.0 91
23/02/2021 0:50 7.1 93 0.0 0 0.0 3.3 11.8 86
23/02/2021 1:00 7.0 94 0.0 0 0.0 2.9 10.6 92
23/02/2021 1:10 6.9 94 0.0 0 0.0 2.4 8.8 79
23/02/2021 1:20 7.1 95 0.0 0 0.0 1.1 3.9 115
23/02/2021 1:30 7.1 94 0.0 0 0.0 1.4 4.9 106
23/02/2021 1:40 7.1 94 0.0 0 0.0 2.3 8.1 75
23/02/2021 1:50 7.1 93 0.0 0 0.0 2.9 10.5 89
23/02/2021 2:00 7.0 93 0.0 0 0.0 2.1 7.6 59
23/02/2021 2:10 7.1 94 0.0 0 0.0 1.9 6.7 99
23/02/2021 2:20 7.2 93 0.0 0 0.0 1.4 5.1 69
23/02/2021 2:30 7.2 93 0.0 0 0.0 2.1 7.4 66
23/02/2021 2:40 7.2 93 0.0 0 0.0 1.0 3.5 116
23/02/2021 2:50 7.1 93 0.0 0 0.0 0.4 1.3 202
23/02/2021 3:00 6.7 94 0.0 0 0.0 0.8 2.9 289
23/02/2021 3:10 6.5 95 0.0 0 0.0 1.4 4.9 290
23/02/2021 3:20 6.5 96 0.0 0 0.0 1.0 3.6 314
23/02/2021 3:30 6.5 96 0.0 0 0.0 0.1 0.3 360
23/02/2021 3:40 6.5 96 0.0 0 0.0 0.2 0.5 321
23/02/2021 3:50 6.6 96 0.0 0 0.0 0.7 2.6 291
23/02/2021 4:00 6.6 95 0.0 0 0.0 0.5 1.8 272
23/02/2021 4:10 6.6 95 0.0 0 0.0 0.1 0.3 253
23/02/2021 4:20 6.6 95 0.0 0 0.0 0.3 0.9 288
23/02/2021 4:30 6.7 95 0.0 0 0.0 0.6 2.0 302
23/02/2021 4:40 6.8 95 0.0 0 0.0 0.7 2.5 268
23/02/2021 4:50 6.8 94 0.0 0 0.0 0.9 3.2 295
23/02/2021 5:00 6.7 95 0.0 0 0.0 1.2 4.3 313
23/02/2021 5:10 6.7 95 0.0 0 0.0 1.3 4.7 317
23/02/2021 5:20 6.9 94 0.0 0 0.0 0.9 3.1 290
23/02/2021 5:30 6.8 94 0.0 0 0.0 0.8 3.0 267
23/02/2021 5:40 6.9 94 0.0 0 0.0 0.4 1.4 295
23/02/2021 5:50 6.8 95 0.0 0 0.0 0.3 1.2 325
23/02/2021 6:00 6.9 95 0.0 0 0.0 0.3 1.1 280
23/02/2021 6:10 7.0 94 0.0 0 0.0 0.5 1.6 289
23/02/2021 6:20 7.0 95 0.0 0 0.0 0.7 2.4 335
23/02/2021 6:30 7.0 96 0.0 0 0.0 1.3 4.6 319
23/02/2021 6:40 6.9 95 0.0 0 0.0 0.6 2.0 261
23/02/2021 6:50 7.0 95 0.0 0 0.0 0.9 3.3 353
23/02/2021 7:00 7.3 95 0.0 0 0.0 1.1 4.0 314
23/02/2021 7:10 7.3 95 0.0 0 0.0 1.0 3.7 338
23/02/2021 7:20 7.3 95 0.0 0 0.0 1.2 4.4 331
23/02/2021 7:30 7.5 95 0.0 0 0.0 1.2 4.4 320
23/02/2021 7:40 7.4 95 0.0 0 0.0 0.5 1.9 301
23/02/2021 7:50 7.5 95 25.1 0 0.0 0.6 2.1 84
23/02/2021 8:00 7.5 94 41.0 0 0.0 1.3 4.7 108
23/02/2021 8:10 7.6 94 65.6 0 0.0 1.3 4.6 106
23/02/2021 8:20 7.6 94 54.4 0 0.0 1.7 6.1 103
23/02/2021 8:30 7.7 94 62.0 0 0.0 1.2 4.2 120
23/02/2021 8:40 7.7 94 84.3 0 0.0 0.5 1.7 141
23/02/2021 8:50 7.9 95 123.7 0 0.0 1.0 3.7 72
23/02/2021 9:00 8.2 94 190.3 214 0.0 0.1 0.5 21
23/02/2021 9:10 8.7 92 272.1 526 0.0 0.4 1.3 197
23/02/2021 9:20 9.0 91 127.9 0 0.0 0.6 2.0 243
23/02/2021 9:30 9.0 89 90.5 0 0.0 0.3 1.1 277
23/02/2021 9:40 9.0 90 122.6 0 0.0 0.5 1.9 280
23/02/2021 9:50 9.1 90 105.1 0 0.0 1.2 4.4 309
23/02/2021 10:00 9.0 90 119.1 0 0.0 0.9 3.2 339
23/02/2021 10:10 9.2 90 227.2 220 0.0 0.1 0.5 201
23/02/2021 10:20 9.8 88 292.4 496 0.0 1.2 4.4 125
23/02/2021 10:30 10.3 82 649.0 600 0.0 3.1 11.0 112
23/02/2021 10:40 11.0 78 379.9 530 0.0 3.0 10.9 123
23/02/2021 10:50 10.8 77 334.3 600 0.0 2.4 8.6 120
23/02/2021 11:00 11.0 76 327.7 580 0.0 3.0 10.9 122
23/02/2021 11:10 11.1 75 263.5 0 0.0 3.8 13.7 107
23/02/2021 11:20 11.3 73 338.5 544 0.0 3.9 14.0 107
23/02/2021 11:30 11.7 72 436.0 600 0.0 3.5 12.6 107
23/02/2021 11:40 12.3 70 728.1 600 0.0 3.4 12.3 102
23/02/2021 11:50 12.8 68 627.6 570 0.0 3.8 13.8 112
23/02/2021 12:00 12.3 68 408.1 408 0.0 4.2 15.2 115
23/02/2021 12:10 12.2 67 339.5 304 0.0 4.5 16.2 111
23/02/2021 12:20 11.9 68 347.3 216 0.0 5.1 18.3 110
23/02/2021 12:30 12.4 68 480.0 372 0.0 4.6 16.6 105
23/02/2021 12:40 12.3 67 248.5 16 0.0 3.9 14.0 115
23/02/2021 12:50 12.1 68 239.3 0 0.0 4.7 17.1 112
23/02/2021 13:00 12.0 67 229.0 0 0.0 4.4 15.7 108
23/02/2021 13:10 12.3 67 299.0 54 0.0 4.4 15.8 115
23/02/2021 13:20 12.3 66 438.5 306 0.0 3.9 14.1 113
23/02/2021 13:30 12.9 64 544.3 458 0.0 4.6 16.5 112
23/02/2021 13:40 13.2 63 603.8 586 0.0 4.7 17.0 113
23/02/2021 13:50 13.2 62 318.0 228 0.0 4.7 17.1 116
23/02/2021 14:00 13.2 63 355.5 250 0.0 3.9 14.0 119
23/02/2021 14:10 13.3 62 661.8 598 0.0 5.7 20.7 114
23/02/2021 14:20 13.8 60 588.3 596 0.0 4.5 16.1 120
23/02/2021 14:30 13.8 61 479.5 518 0.0 4.3 15.3 118
23/02/2021 14:40 13.6 61 509.5 596 0.0 3.5 12.5 133
23/02/2021 14:50 13.6 61 486.7 600 0.0 3.6 13.0 130
23/02/2021 15:00 13.6 60 458.6 600 0.0 3.7 13.4 131
23/02/2021 15:10 13.8 60 438.0 600 0.0 4.1 14.7 133
23/02/2021 15:20 13.7 60 402.5 600 0.0 4.6 16.6 123
23/02/2021 15:30 13.7 61 367.3 600 0.0 3.4 12.3 122
23/02/2021 15:40 13.8 60 336.9 600 0.0 4.2 15.0 124
23/02/2021 15:50 13.8 60 311.5 600 0.0 4.7 17.0 122
23/02/2021 16:00 13.8 59 280.7 600 0.0 4.8 17.1 121
23/02/2021 16:10 13.6 60 246.9 600 0.0 3.7 13.3 120
23/02/2021 16:20 13.8 59 167.0 392 0.0 4.0 14.4 133
23/02/2021 16:30 13.9 58 77.5 0 0.0 4.2 15.2 131
23/02/2021 16:40 13.8 59 66.7 0 0.0 3.7 13.2 121
23/02/2021 16:50 13.7 59 58.3 0 0.0 3.9 13.9 132
23/02/2021 17:00 13.6 60 49.1 0 0.0 4.5 16.3 119
23/02/2021 17:10 13.3 60 40.3 0 0.0 3.3 12.0 124
23/02/2021 17:20 13.2 61 30.9 0 0.0 2.2 8.0 140
23/02/2021 17:30 13.2 61 21.5 0 0.0 2.1 7.5 176
23/02/2021 17:40 12.8 63 1.6 0 0.0 0.9 3.2 197
23/02/2021 17:50 12.0 66 0.0 0 0.0 0.4 1.6 335
23/02/2021 18:00 10.6 73 0.0 0 0.0 1.0 3.5 337
23/02/2021 18:10 9.6 77 0.0 0 0.0 0.8 2.8 344
23/02/2021 18:20 9.2 78 0.0 0 0.0 0.3 1.2 25
23/02/2021 18:30 9.0 78 0.0 0 0.0 0.1 0.5 102
23/02/2021 18:40 8.8 80 0.0 0 0.0 0.6 2.3 338
23/02/2021 18:50 8.2 82 0.0 0 0.0 0.5 1.9 42
23/02/2021 19:00 7.8 85 0.0 0 0.0 0.6 2.2 335
23/02/2021 19:10 7.9 84 0.0 0 0.0 0.5 1.6 353
23/02/2021 19:20 8.0 83 0.0 0 0.0 0.2 0.6 32
23/02/2021 19:30 7.6 85 0.0 0 0.0 0.7 2.4 334
23/02/2021 19:40 7.4 86 0.0 0 0.0 0.7 2.5 352
23/02/2021 19:50 7.4 86 0.0 0 0.0 0.5 1.6 280
23/02/2021 20:00 7.2 87 0.0 0 0.0 0.6 2.0 27
23/02/2021 20:10 7.2 89 0.0 0 0.0 0.3 1.2 37
23/02/2021 20:20 7.1 88 0.0 0 0.0 0.2 0.6 350
23/02/2021 20:30 6.6 90 0.0 0 0.0 0.5 1.8 11
23/02/2021 20:40 7.2 89 0.0 0 0.0 0.6 2.0 10
23/02/2021 20:50 6.9 89 0.0 0 0.0 0.2 0.6 354
23/02/2021 21:00 6.5 91 0.0 0 0.0 0.3 1.0 12
23/02/2021 21:10 6.6 91 0.0 0 0.0 0.4 1.5 322
23/02/2021 21:20 6.5 91 0.0 0 0.0 0.6 2.1 9
23/02/2021 21:30 6.7 92 0.0 0 0.0 0.4 1.4 17
23/02/2021 21:40 6.6 91 0.0 0 0.0 0.2 0.9 24
23/02/2021 21:50 6.2 93 0.0 0 0.0 0.5 1.8 353
23/02/2021 22:00 6.5 93 0.0 0 0.0 0.4 1.5 9
23/02/2021 22:10 6.5 92 0.0 0 0.0 0.5 1.7 16
23/02/2021 22:20 6.7 93 0.0 0 0.0 0.6 2.0 0
23/02/2021 22:30 7.1 91 0.0 0 0.0 0.7 2.4 342
23/02/2021 22:40 7.1 91 0.0 0 0.0 0.6 2.0 337
23/02/2021 22:50 7.2 91 0.0 0 0.0 1.0 3.5 354
23/02/2021 23:00 8.5 87 0.0 0 0.0 0.9 3.2 108
23/02/2021 23:10 8.5 87 0.0 0 0.0 0.7 2.4 314
23/02/2021 23:20 9.3 84 0.0 0 0.0 1.3 4.8 105
23/02/2021 23:30 10.0 82 0.0 0 0.0 1.4 5.1 120
23/02/2021 23:40 10.6 80 0.0 0 0.0 1.5 5.4 154
23/02/2021 23:50 9.5 82 0.0 0 0.0 0.7 2.4 100
Anterior Página 1 de 1 Siguiente

NOTA: Tipo de datos según el color:
   - Valores diarios o 10 minutos correctos
   - Valores diarios calculados a partir de un número de datos 10 minutos menor que 144 y mayor que 120, o de un número de datos semihorarios menor que 48 y mayor que 40 (caso de las estaciones de INTIA Y Ministerio)
   - Valores diez minutos estimados


Contacto        Enlaces        Aviso legal